Time;durP1;ratioP1;P1;durP2;ratioP2;P2;SDS_P1;SDS_P2;PMS_P1;PMS_P2;Temp;Humidity;BMP_temperature;BMP_pressure;BME280_temperature;BME280_humidity;BME280_pressure;Samples;Min_cycle;Max_cycle;Signal;HPM_P1;HPM_P2
2022/09/27 00:01:16;;;;;;;38.55;28.40;;;10.50;99.90;;;11.14;100.00;98376.56;5062694;27;120284;-70
2022/09/27 00:03:45;;;;;;;40.03;28.73;;;10.50;99.90;;;11.15;100.00;98378.94;5064164;27;119337;-71
2022/09/27 00:06:18;;;;;;;43.05;29.77;;;10.50;99.90;;;11.09;100.00;98383.03;5062091;27;129830;-71
2022/09/27 00:08:47;;;;;;;38.70;28.80;;;10.40;99.90;;;11.07;100.00;98379.09;5044725;27;129774;-69
2022/09/27 00:11:25;;;;;;;41.90;29.88;;;10.40;99.90;;;11.06;100.00;98377.50;5042214;27;119610;-70
2022/09/27 00:13:55;;;;;;;45.30;32.15;;;10.40;99.90;;;11.05;100.00;98365.84;5042360;27;120232;-70
2022/09/27 00:16:28;;;;;;;44.95;30.90;;;10.40;99.90;;;11.07;100.00;98362.81;5040565;27;129948;-70
2022/09/27 00:19:00;;;;;;;43.65;30.15;;;10.40;99.90;;;11.04;100.00;98364.25;5041728;27;129853;-71
2022/09/27 00:21:29;;;;;;;46.65;32.10;;;10.40;99.90;;;10.79;100.00;98363.50;5042068;27;120510;-70
2022/09/27 00:23:59;;;;;;;44.05;30.85;;;10.30;99.90;;;10.71;100.00;98357.06;5041898;27;120271;-70
2022/09/27 00:26:28;;;;;;;43.15;30.02;;;10.20;99.90;;;10.67;100.00;98355.38;5041336;27;130397;-70
2022/09/27 00:28:57;;;;;;;45.67;30.10;;;10.20;99.90;;;10.72;100.00;98361.38;5040535;27;129385;-69
2022/09/27 00:31:29;;;;;;;36.80;26.05;;;10.20;99.90;;;10.77;100.00;98361.13;5041628;27;119559;-70
2022/09/27 00:34:02;;;;;;;37.92;26.02;;;10.20;99.90;;;10.81;100.00;98363.16;5042688;27;119589;-70
2022/09/27 00:36:33;;;;;;;38.92;27.40;;;10.20;99.90;;;10.86;100.00;98357.50;5026370;27;129951;-70
2022/09/27 00:39:02;;;;;;;38.63;26.55;;;10.20;99.90;;;10.92;100.00;98353.44;5041506;27;129476;-71
2022/09/27 00:41:33;;;;;;;39.60;27.77;;;10.20;99.90;;;10.77;100.00;98355.72;5042524;27;121630;-71
2022/09/27 00:44:06;;;;;;;40.47;27.88;;;10.10;99.90;;;10.59;100.00;98359.78;5040357;27;122024;-72
2022/09/27 00:46:42;;;;;;;41.60;28.65;;;10.00;99.90;;;10.48;100.00;98354.00;5039929;27;130656;-71
2022/09/27 00:49:19;;;;;;;41.95;26.42;;;9.90;99.90;;;10.31;100.00;98349.56;5040945;27;129299;-70
2022/09/27 00:51:53;;;;;;;37.97;25.88;;;9.80;99.90;;;10.21;100.00;98355.44;5041516;27;119422;-70
2022/09/27 00:54:25;;;;;;;33.53;24.55;;;9.70;99.90;;;10.15;100.00;98349.44;5040248;27;119418;-70
2022/09/27 00:56:55;;;;;;;39.30;25.08;;;9.70;99.90;;;10.12;100.00;98349.31;5039897;27;130317;-70
2022/09/27 00:59:30;;;;;;;38.88;25.58;;;9.70;99.90;;;10.06;100.00;98343.31;5039920;27;129821;-70
2022/09/27 01:02:01;;;;;;;35.58;24.70;;;9.70;99.90;;;10.22;100.00;98340.72;5040425;27;120075;-70
2022/09/27 01:04:32;;;;;;;40.83;26.48;;;9.70;99.90;;;10.34;100.00;98335.34;5042748;27;119336;-70
2022/09/27 01:07:01;;;;;;;39.00;25.50;;;9.70;99.90;;;10.46;100.00;98333.81;5038574;27;130449;-71
2022/09/27 01:09:31;;;;;;;41.05;28.00;;;9.80;99.90;;;10.51;100.00;98331.63;5053349;27;129501;-71
2022/09/27 01:12:12;;;;;;;39.28;26.23;;;9.80;99.90;;;10.57;100.00;98329.50;5023192;27;119874;-69
2022/09/27 01:15:01;;;;;;;41.65;26.30;;;9.80;99.90;;;10.52;100.00;98329.72;5041210;27;119465;-70
2022/09/27 01:17:47;;;;;;;39.75;26.25;;;9.80;99.90;;;10.48;100.00;98320.69;5022683;27;130398;-69
2022/09/27 01:20:52;;;;;;;37.80;25.05;;;9.80;99.90;;;10.33;100.00;98335.69;5040655;27;129310;-71
2022/09/27 01:23:54;;;;;;;36.22;23.48;;;9.80;99.90;;;10.31;100.00;98337.94;5039832;27;119488;-69
2022/09/27 01:26:52;;;;;;;44.95;25.50;;;9.80;99.90;;;10.24;100.00;98331.16;5036182;27;119263;-69
2022/09/27 01:29:35;;;;;;;39.00;24.25;;;9.80;99.90;;;10.28;100.00;98328.53;5043120;27;130486;-72
2022/09/27 01:32:12;;;;;;;37.85;24.15;;;9.70;99.90;;;10.31;100.00;98327.09;5056216;27;129335;-70
2022/09/27 01:34:48;;;;;;;39.22;25.67;;;9.70;99.90;;;10.32;100.00;98334.88;5021240;27;122078;-69
2022/09/27 01:37:26;;;;;;;38.83;25.23;;;9.80;99.90;;;10.33;100.00;98331.09;5025727;27;121600;-70
2022/09/27 01:40:02;;;;;;;37.45;25.58;;;9.70;99.90;;;10.34;100.00;98332.66;5021946;27;130705;-71
2022/09/27 01:42:37;;;;;;;37.93;24.27;;;9.70;99.90;;;10.26;100.00;98326.16;5040471;27;130039;-70
2022/09/27 01:45:14;;;;;;;38.05;23.67;;;9.70;99.90;;;10.11;100.00;98328.75;5039333;27;119797;-69
2022/09/27 01:48:02;;;;;;;40.05;25.05;;;9.60;99.90;;;10.01;100.00;98330.78;5042739;27;118889;-69
2022/09/27 01:50:59;;;;;;;38.72;23.63;;;9.60;99.90;;;10.05;100.00;98325.47;5008479;27;130110;-70
2022/09/27 01:53:34;;;;;;;37.70;23.35;;;9.60;99.90;;;9.98;100.00;98315.19;5025685;27;130005;-72
2022/09/27 01:56:44;;;;;;;34.60;22.90;;;9.50;99.90;;;10.02;100.00;98326.94;4980426;28;120081;-70
2022/09/27 01:59:24;;;;;;;37.65;23.88;;;9.50;99.90;;;10.00;100.00;98318.38;5018127;27;119290;-69
2022/09/27 02:02:11;;;;;;;37.17;22.92;;;9.50;99.90;;;9.92;100.00;98311.09;5024036;27;129322;-69
2022/09/27 02:05:06;;;;;;;38.85;24.38;;;9.50;99.90;;;9.84;100.00;98320.13;5031842;27;129393;-69
2022/09/27 02:07:44;;;;;;;44.15;25.13;;;9.50;99.90;;;9.87;100.00;98319.44;5022119;27;119415;-69
2022/09/27 02:10:17;;;;;;;39.00;22.92;;;9.50;99.90;;;9.88;100.00;98318.34;5025275;27;119626;-69
2022/09/27 02:13:05;;;;;;;33.53;21.73;;;9.40;99.90;;;9.76;100.00;98313.66;5039883;27;130051;-69
2022/09/27 02:15:45;;;;;;;33.80;21.83;;;9.40;99.90;;;9.69;100.00;98314.22;5024975;27;129877;-69
2022/09/27 02:18:32;;;;;;;36.17;22.90;;;9.40;99.90;;;9.70;100.00;98310.38;5040342;27;119779;-68
2022/09/27 02:21:07;;;;;;;35.47;22.20;;;9.40;99.90;;;9.69;100.00;98303.38;5025505;27;119954;-71
2022/09/27 02:23:42;;;;;;;34.30;20.63;;;9.40;99.90;;;9.71;100.00;98303.84;5042141;27;129732;-71
2022/09/27 02:26:18;;;;;;;31.02;19.92;;;9.40;99.90;;;9.73;100.00;98313.56;5008206;27;128875;-70
2022/09/27 02:28:56;;;;;;;28.67;19.67;;;9.40;99.90;;;9.76;100.00;98315.59;5020749;27;121847;-71
2022/09/27 02:31:32;;;;;;;31.77;20.02;;;9.40;99.90;;;9.73;100.00;98308.13;5041971;27;121655;-70
2022/09/27 02:34:05;;;;;;;34.20;20.77;;;9.40;99.90;;;9.79;100.00;98306.78;5021714;27;129764;-71
2022/09/27 02:36:35;;;;;;;29.98;18.83;;;9.40;99.90;;;9.83;100.00;98307.69;5021501;27;129820;-72
2022/09/27 02:39:05;;;;;;;29.27;19.70;;;9.40;99.90;;;9.84;100.00;98309.28;5039985;27;119642;-71
2022/09/27 02:41:35;;;;;;;32.70;19.65;;;9.40;99.90;;;9.84;100.00;98299.22;5024907;27;118983;-71
2022/09/27 02:44:10;;;;;;;26.27;17.83;;;9.40;99.90;;;9.84;100.00;98298.44;5024337;27;130086;-71
2022/09/27 02:47:08;;;;;;;29.60;18.63;;;9.40;99.90;;;9.80;100.00;98298.34;5021835;27;129657;-71
2022/09/27 02:49:56;;;;;;;25.58;17.17;;;9.40;99.90;;;9.67;100.00;98302.13;5021992;27;119751;-69
2022/09/27 02:53:00;;;;;;;23.08;16.50;;;9.30;99.90;;;9.50;100.00;98286.84;5046303;27;119524;-70
2022/09/27 02:55:51;;;;;;;23.25;17.33;;;9.30;99.90;;;9.57;100.00;98295.22;5023706;27;129898;-69
2022/09/27 02:58:54;;;;;;;23.58;17.40;;;9.30;99.90;;;9.65;100.00;98285.44;5042995;27;130535;-71
2022/09/27 03:01:49;;;;;;;25.17;17.35;;;9.30;99.90;;;9.76;100.00;98281.16;5043883;27;119726;-70
2022/09/27 03:04:40;;;;;;;22.38;16.38;;;9.30;99.90;;;9.80;100.00;98281.25;5065356;27;119167;-72
2022/09/27 03:07:09;;;;;;;25.20;18.13;;;9.30;99.90;;;9.84;100.00;98276.78;5044855;27;130314;-70
2022/09/27 03:09:46;;;;;;;23.98;16.95;;;9.30;99.90;;;9.87;100.00;98271.47;5048241;27;129199;-69
2022/09/27 03:12:21;;;;;;;24.27;17.23;;;9.30;99.90;;;9.92;100.00;98284.00;5045335;27;119673;-70
2022/09/27 03:14:51;;;;;;;24.88;17.58;;;9.40;99.90;;;9.92;100.00;98278.56;5065982;27;119218;-70
2022/09/27 03:17:39;;;;;;;27.13;17.30;;;9.30;99.90;;;9.86;100.00;98275.31;5065494;27;130293;-69
2022/09/27 03:20:26;;;;;;;27.15;18.80;;;9.30;99.90;;;9.70;100.00;98272.44;5048059;27;129356;-71
2022/09/27 03:23:05;;;;;;;28.73;19.10;;;9.20;99.90;;;9.65;100.00;98280.00;5030239;27;121558;-71
2022/09/27 03:25:35;;;;;;;25.55;17.05;;;9.20;99.90;;;9.71;100.00;98279.44;5048453;27;121527;-69
2022/09/27 03:28:05;;;;;;;21.00;15.60;;;9.30;99.90;;;9.77;100.00;98279.22;5047823;27;129523;-71
2022/09/27 03:30:36;;;;;;;18.98;14.23;;;9.20;99.90;;;9.76;100.00;98283.09;5044264;27;129791;-70
2022/09/27 03:33:05;;;;;;;21.33;15.27;;;9.10;99.90;;;9.70;100.00;98282.50;5065372;27;119240;-71
2022/09/27 03:35:55;;;;;;;21.10;15.40;;;9.10;99.90;;;9.71;100.00;98282.16;5065795;27;120141;-70
2022/09/27 03:38:24;;;;;;;24.45;15.32;;;9.10;99.90;;;9.76;100.00;98288.50;5047808;27;128941;-70
2022/09/27 03:40:54;;;;;;;18.45;14.55;;;9.10;99.90;;;9.61;100.00;98285.28;5047913;27;129363;-70
2022/09/27 03:43:23;;;;;;;18.83;14.13;;;9.00;99.90;;;9.27;100.00;98287.22;5047870;27;119521;-73
2022/09/27 03:45:52;;;;;;;18.77;14.65;;;8.90;99.90;;;9.10;100.00;98285.44;5063064;27;119558;-72
2022/09/27 03:48:20;;;;;;;18.40;14.13;;;8.80;99.90;;;9.03;100.00;98276.28;5061050;27;130042;-71
2022/09/27 03:50:51;;;;;;;18.17;13.68;;;8.70;99.90;;;8.89;100.00;98288.16;5047879;27;129000;-73
2022/09/27 03:53:19;;;;;;;20.17;14.68;;;8.70;99.90;;;8.91;100.00;98291.34;5064820;27;120107;-71
2022/09/27 03:55:48;;;;;;;20.88;14.18;;;8.70;99.90;;;9.02;100.00;98285.50;5043907;27;119370;-71
2022/09/27 03:58:18;;;;;;;22.02;14.63;;;8.70;99.90;;;8.97;100.00;98295.41;5061951;27;130000;-71
2022/09/27 04:00:47;;;;;;;21.13;15.15;;;8.70;99.90;;;9.06;100.00;98291.84;5041198;27;129579;-72
2022/09/27 04:03:16;;;;;;;25.00;16.52;;;8.80;99.90;;;9.09;100.00;98286.56;5062642;27;119560;-70
2022/09/27 04:06:08;;;;;;;19.02;14.27;;;8.80;99.90;;;9.11;100.00;98297.06;5056431;27;119375;-71
2022/09/27 04:08:41;;;;;;;21.60;15.23;;;8.80;99.90;;;9.10;100.00;98290.06;5043206;27;130422;-74
2022/09/27 04:11:12;;;;;;;23.38;16.23;;;8.80;99.90;;;9.10;100.00;98282.75;5046649;27;129010;-72
2022/09/27 04:13:48;;;;;;;21.35;15.45;;;8.90;99.90;;;9.19;100.00;98285.34;5045342;27;124767;-72
2022/09/27 04:16:17;;;;;;;23.65;15.70;;;8.90;99.90;;;9.26;100.00;98285.63;5043860;27;122499;-71
2022/09/27 04:18:55;;;;;;;22.50;15.93;;;8.90;99.90;;;9.38;100.00;98286.78;5037251;27;129857;-70
2022/09/27 04:21:37;;;;;;;21.20;15.57;;;9.00;99.90;;;9.41;100.00;98286.94;5044860;27;130534;-73
2022/09/27 04:24:06;;;;;;;20.77;14.88;;;9.00;99.90;;;9.42;100.00;98287.72;5023575;27;119530;-71
2022/09/27 04:26:36;;;;;;;21.58;14.38;;;9.00;99.90;;;9.34;100.00;98290.16;5023903;27;119503;-70
2022/09/27 04:29:13;;;;;;;20.25;14.25;;;8.90;99.90;;;9.35;100.00;98299.88;5023255;27;129816;-70
2022/09/27 04:31:49;;;;;;;18.45;13.40;;;9.00;99.90;;;9.45;100.00;98295.19;5038880;27;128635;-70
2022/09/27 04:36:25;;;;;;;18.52;13.13;;;9.00;99.90;;;9.47;100.00;98295.63;5062076;27;119777;-71
2022/09/27 04:37:12;;;;;;;18.15;13.00;;;9.10;99.90;;;9.41;100.00;98294.25;5046871;27;119791;-69
2022/09/27 04:39:45;;;;;;;17.90;13.00;;;9.00;99.90;;;9.50;100.00;98286.84;5042460;27;130278;-70
2022/09/27 04:42:13;;;;;;;17.85;12.85;;;9.10;99.90;;;9.59;100.00;98276.72;5046341;27;129459;-70
2022/09/27 04:44:44;;;;;;;17.33;12.75;;;9.10;99.90;;;9.61;100.00;98279.88;5043981;27;119974;-72
2022/09/27 04:47:14;;;;;;;18.83;12.98;;;9.10;99.90;;;9.58;100.00;98280.53;5046815;27;118953;-72
2022/09/27 04:49:43;;;;;;;15.20;12.13;;;9.10;99.90;;;9.54;100.00;98266.88;5046565;27;129214;-73
2022/09/27 04:52:13;;;;;;;18.23;13.40;;;9.10;99.90;;;9.62;100.00;98270.63;5042978;27;129456;-71
2022/09/27 04:54:42;;;;;;;16.60;12.10;;;9.20;99.90;;;9.64;100.00;98270.28;5046923;27;119657;-71
2022/09/27 04:57:13;;;;;;;16.50;12.07;;;9.20;99.90;;;9.72;100.00;98269.41;5062207;27;119571;-72
2022/09/27 04:59:44;;;;;;;17.52;11.48;;;9.20;99.90;;;9.67;100.00;98275.03;5046516;27;130039;-72
2022/09/27 05:02:14;;;;;;;16.40;12.10;;;9.20;99.90;;;9.63;100.00;98272.22;5060330;27;129593;-72
2022/09/27 05:05:18;;;;;;;18.73;12.27;;;9.20;99.90;;;9.68;100.00;98272.00;5042882;27;121652;-72
2022/09/27 05:07:46;;;;;;;16.45;12.13;;;9.20;99.90;;;9.63;100.00;98272.22;5023378;27;121859;-72
2022/09/27 05:10:27;;;;;;;15.80;11.88;;;9.20;99.90;;;9.64;100.00;98268.38;5023069;27;130278;-71
2022/09/27 05:12:56;;;;;;;18.50;11.73;;;9.30;99.90;;;9.70;100.00;98271.66;5025663;27;130013;-72
2022/09/27 05:15:27;;;;;;;17.77;12.70;;;9.30;99.90;;;9.76;100.00;98274.94;5022643;27;119475;-72
2022/09/27 05:18:14;;;;;;;15.95;11.90;;;9.30;99.90;;;9.61;100.00;98274.44;5041128;27;119454;-71
2022/09/27 05:21:02;;;;;;;16.30;12.63;;;9.20;99.90;;;9.77;100.00;98271.91;5040872;27;130291;-70
2022/09/27 05:23:38;;;;;;;15.57;11.75;;;9.30;99.90;;;9.75;100.00;98271.44;5026129;27;129430;-70
2022/09/27 05:26:07;;;;;;;17.10;12.48;;;9.30;99.90;;;9.76;100.00;98280.38;5041080;27;119470;-73
2022/09/27 05:28:37;;;;;;;16.60;11.27;;;9.30;99.90;;;9.75;100.00;98279.56;5022865;27;119634;-73
2022/09/27 05:31:07;;;;;;;16.77;12.00;;;9.30;99.90;;;9.76;100.00;98283.09;5039700;27;130380;-71
2022/09/27 05:33:36;;;;;;;15.93;12.07;;;9.30;99.90;;;9.83;100.00;98270.56;5025787;27;129999;-70
2022/09/27 05:36:23;;;;;;;16.10;12.13;;;9.40;99.90;;;9.88;100.00;98283.88;5040961;27;120108;-72
2022/09/27 05:38:53;;;;;;;16.38;11.88;;;9.40;99.90;;;9.85;100.00;98279.16;5008653;27;119033;-72
2022/09/27 05:41:22;;;;;;;17.60;12.30;;;9.40;99.90;;;9.90;100.00;98283.56;5022509;27;130487;-75
2022/09/27 05:43:51;;;;;;;16.23;11.73;;;9.50;99.90;;;9.77;100.00;98287.34;5025511;27;130066;-76
2022/09/27 05:46:21;;;;;;;18.45;11.73;;;9.40;99.90;;;9.91;100.00;98282.44;5025773;27;119382;-74
2022/09/27 05:48:51;;;;;;;16.92;12.30;;;9.50;99.90;;;10.07;100.00;98288.75;5026249;27;119396;-75
2022/09/27 05:51:19;;;;;;;19.02;12.52;;;9.60;99.90;;;10.11;100.00;98275.31;5022748;27;130546;-72
2022/09/27 05:53:48;;;;;;;18.05;13.07;;;9.60;99.90;;;10.03;100.00;98268.09;5025203;27;129203;-74
2022/09/27 05:56:27;;;;;;;17.70;13.73;;;9.60;99.90;;;10.12;100.00;98259.88;5020516;27;122384;-73
2022/09/27 05:59:15;;;;;;;19.77;14.85;;;9.60;99.90;;;10.33;100.00;98262.47;5043332;27;121681;-74
2022/09/27 06:02:04;;;;;;;17.98;13.38;;;9.70;99.90;;;10.50;100.00;98253.31;5040174;27;130082;-76
2022/09/27 06:04:53;;;;;;;16.67;11.57;;;9.90;99.90;;;10.51;100.00;98254.91;5042406;27;129219;-75
2022/09/27 06:07:49;;;;;;;13.98;11.02;;;10.00;99.90;;;10.72;100.00;98254.72;5026781;27;119938;-72
2022/09/27 06:10:24;;;;;;;16.55;11.38;;;10.10;99.90;;;11.17;100.00;98253.69;5059859;27;119115;-71
2022/09/27 06:12:53;;;;;;;14.20;10.98;;;10.40;99.90;;;11.23;100.00;98246.09;5049059;27;130421;-73
2022/09/27 06:15:42;;;;;;;14.25;10.05;;;10.40;99.90;;;11.18;100.00;98241.72;5038695;27;130311;-71
2022/09/27 06:18:15;;;;;;;16.45;10.80;;;10.40;99.90;;;10.90;100.00;98245.19;5018728;28;120094;-73
2022/09/27 06:20:46;;;;;;;15.70;11.25;;;10.30;99.90;;;10.68;100.00;98238.34;5021984;28;118702;-73
2022/09/27 06:23:17;;;;;;;17.67;12.23;;;10.10;99.90;;;10.69;100.00;98242.66;5003832;28;129251;-74
2022/09/27 06:25:47;;;;;;;18.77;12.40;;;10.10;99.90;;;10.75;100.00;98244.00;5018490;28;130251;-70
2022/09/27 06:28:36;;;;;;;20.13;12.38;;;10.10;99.90;;;10.77;100.00;98241.72;5022249;27;120281;-73
2022/09/27 06:31:08;;;;;;;17.45;13.20;;;10.10;99.90;;;10.81;100.00;98251.91;5021603;28;119071;-72
2022/09/27 06:33:43;;;;;;;17.60;12.97;;;10.10;99.90;;;10.50;100.00;98243.28;5018154;28;130074;-75
2022/09/27 06:36:11;;;;;;;18.90;12.82;;;9.90;99.90;;;10.24;100.00;98255.22;5004685;28;128302;-72
2022/09/27 06:38:42;;;;;;;16.85;13.00;;;9.80;99.90;;;10.29;100.00;98248.00;5031792;27;119728;-73
2022/09/27 06:41:18;;;;;;;;;;;9.80;99.90;;;10.27;100.00;98256.47;5040831;27;119812;-74
2022/09/27 06:44:06;;;;;;;20.45;14.52;;;9.90;99.90;;;10.28;100.00;98247.19;5036254;27;129986;-75
2022/09/27 06:47:02;;;;;;;18.50;13.80;;;9.90;99.90;;;10.60;100.00;98250.16;5010017;27;129353;-72
2022/09/27 06:49:47;;;;;;;17.23;13.02;;;10.10;99.90;;;10.84;100.00;98245.78;5034625;27;122072;-73
2022/09/27 06:52:18;;;;;;;17.67;13.10;;;10.20;99.90;;;10.85;100.00;98252.81;5040186;27;121623;-69
2022/09/27 06:54:47;;;;;;;17.42;13.20;;;10.20;99.90;;;10.80;100.00;98251.13;5037366;27;130477;-71
2022/09/27 07:00:22;;;;;;;17.05;13.13;;;10.20;99.90;;;10.98;100.00;98248.91;5040832;27;128300;-72
2022/09/27 07:00:25;;;;;;;22.52;14.73;;;10.20;99.90;;;10.82;100.00;98248.06;5023258;27;119138;-73
2022/09/27 07:03:34;;;;;;;19.02;13.85;;;10.10;99.90;;;10.97;100.00;98252.78;4978078;28;120687;-71
2022/09/27 07:06:27;;;;;;;18.70;13.07;;;10.30;99.90;;;11.03;100.00;98251.41;4960547;28;129815;-71
2022/09/27 07:09:13;;;;;;;19.48;14.60;;;10.20;99.90;;;11.00;100.00;98249.38;4994222;27;128793;-77
2022/09/27 07:11:42;;;;;;;20.70;15.35;;;10.30;99.90;;;11.21;100.00;98242.94;5004459;27;119712;-72
2022/09/27 07:14:11;;;;;;;19.50;14.50;;;10.50;99.90;;;11.33;100.00;98238.25;5020859;27;120131;-71
2022/09/27 07:16:40;;;;;;;20.73;15.20;;;10.60;99.90;;;11.67;100.00;98248.81;5000698;28;129590;-74
2022/09/27 07:19:10;;;;;;;20.02;14.73;;;10.80;99.90;;;11.91;99.55;98241.66;5029198;27;129056;-71
2022/09/27 07:21:40;;;;;;;19.45;14.63;;;10.90;99.90;;;11.79;98.66;98248.72;5021872;27;120112;-71
2022/09/27 07:24:09;;;;;;;22.42;16.00;;;10.80;98.60;;;11.70;98.56;98242.66;5022571;27;119404;-71
2022/09/27 07:26:38;;;;;;;20.13;15.27;;;10.80;94.40;;;11.45;100.00;98234.69;5019179;27;130989;-73
2022/09/27 07:29:09;;;;;;;22.95;15.93;;;10.60;99.90;;;11.52;100.00;98237.56;5019600;27;130483;-71
2022/09/27 07:31:38;;;;;;;24.35;17.10;;;10.70;99.90;;;11.81;99.02;98238.31;5005712;27;118445;-72
2022/09/27 07:34:07;;;;;;;24.25;17.80;;;10.90;90.00;;;11.95;98.16;98237.91;5023580;27;119197;-73
2022/09/27 07:36:37;;;;;;;24.27;17.20;;;11.00;92.40;;;12.10;97.76;98239.03;5020837;27;130137;-70
2022/09/27 07:39:07;;;;;;;24.83;17.65;;;11.10;90.60;;;12.33;96.44;98235.69;5027169;27;129708;-71
2022/09/27 07:41:38;;;;;;;21.75;16.17;;;11.20;90.20;;;12.78;93.88;98237.06;5022838;27;122711;-70
2022/09/27 07:44:07;;;;;;;23.55;16.80;;;11.50;68.50;;;12.91;90.70;98230.31;5024234;27;122155;-72
2022/09/27 07:46:41;;;;;;;20.30;15.90;;;11.60;53.80;;;12.63;92.19;98227.78;5040753;27;130194;-72
2022/09/27 07:49:26;;;;;;;21.05;15.75;;;11.50;56.40;;;12.56;91.90;98233.88;5027002;27;130269;-71
2022/09/27 07:52:14;;;;;;;25.00;15.90;;;11.50;48.50;;;12.85;91.44;98229.03;5042803;27;120232;-70
2022/09/27 07:55:06;;;;;;;20.58;14.73;;;11.70;45.50;;;13.24;88.84;98228.22;5011596;27;119880;-71
2022/09/27 07:57:50;;;;;;;18.80;14.98;;;11.90;24.50;;;13.07;88.03;98230.28;5042134;27;130104;-72
2022/09/27 08:00:20;;;;;;;19.23;14.48;;;11.80;26.80;;;12.48;90.59;98225.91;5023250;27;130004;-72
2022/09/27 08:02:49;;;;;;;19.25;14.68;;;11.50;35.20;;;12.81;90.83;98225.44;5042321;27;120123;-70
2022/09/27 08:05:18;;;;;;;20.23;15.98;;;11.70;30.40;;;12.79;90.00;98225.00;5044181;27;119469;-71
2022/09/27 08:07:46;;;;;;;21.90;16.40;;;11.70;29.90;;;12.94;89.16;98218.72;5028595;27;128776;-72
2022/09/27 08:10:17;;;;;;;21.30;16.45;;;11.80;26.90;;;12.92;89.94;98228.41;5043063;27;129787;-73
2022/09/27 08:12:46;;;;;;;21.55;15.65;;;11.80;32.20;;;13.11;87.84;98224.88;5047039;27;119329;-73
2022/09/27 08:15:14;;;;;;;20.83;15.57;;;11.90;21.30;;;13.07;88.52;98224.00;5038339;27;119177;-72
2022/09/27 08:17:43;;;;;;;19.65;14.88;;;11.90;27.00;;;13.02;88.73;98227.03;5036775;27;130557;-74
2022/09/27 08:20:38;;;;;;;20.17;15.73;;;11.80;26.30;;;12.87;90.11;98221.31;5038365;27;129886;-71
2022/09/27 08:23:26;;;;;;;24.40;15.75;;;11.70;35.60;;;12.90;89.32;98226.03;5030067;27;119915;-71
2022/09/27 08:26:15;;;;;;;21.15;15.65;;;11.80;23.10;;;12.87;90.07;98226.75;5030076;27;118584;-70
2022/09/27 08:28:54;;;;;;;22.05;16.23;;;11.80;30.00;;;13.14;89.23;98224.16;5063799;27;129597;-71
2022/09/27 08:31:26;;;;;;;20.17;15.40;;;12.00;24.30;;;13.09;87.58;98232.63;5042800;27;129559;-72
2022/09/27 08:33:57;;;;;;;19.80;15.75;;;11.90;18.20;;;13.14;88.99;98224.16;5044914;27;121381;-72
2022/09/27 08:36:27;;;;;;;17.85;14.57;;;12.00;24.10;;;13.09;88.91;98232.63;5043322;27;121740;-71
2022/09/27 08:38:58;;;;;;;21.15;15.77;;;11.90;27.90;;;12.92;88.73;98226.47;5046525;27;129912;-71
2022/09/27 08:41:39;;;;;;;23.02;15.95;;;11.80;22.50;;;12.82;88.58;98228.97;5046467;27;129139;-75
2022/09/27 08:44:17;;;;;;;;;;;11.70;18.50;;;12.47;90.83;98225.13;5047168;27;119355;-74
2022/09/27 08:47:08;;;;;;;22.77;16.73;;;11.70;24.20;;;12.44;91.47;98223.09;5047427;27;118957;-70
2022/09/27 08:49:43;;;;;;;21.00;16.23;;;11.60;29.90;;;12.47;92.01;98213.44;5045039;27;129816;-70
2022/09/27 08:52:20;;;;;;;23.92;18.02;;;11.60;29.90;;;12.28;93.86;98216.91;5043132;27;130407;-71
2022/09/27 08:54:50;;;;;;;23.95;18.13;;;11.50;44.10;;;12.08;95.93;98219.56;5046186;27;119276;-70
2022/09/27 08:57:24;;;;;;;23.48;18.35;;;11.40;59.00;;;12.22;95.43;98222.63;5046408;27;119016;-70
2022/09/27 09:00:01;;;;;;;22.02;18.25;;;11.40;58.60;;;12.19;95.40;98222.53;5044449;27;129653;-72
2022/09/27 09:02:30;;;;;;;24.02;19.80;;;11.40;55.90;;;12.02;95.93;98220.97;5042947;27;129843;-71
2022/09/27 09:05:04;;;;;;;22.70;17.95;;;11.30;56.60;;;11.92;96.51;98224.19;5046276;27;118950;-70
2022/09/27 09:08:00;;;;;;;26.33;19.17;;;11.20;63.80;;;11.96;96.70;98222.38;5060102;27;120068;-71
2022/09/27 09:13:55;;;;;;;26.08;17.55;;;11.30;68.00;;;12.05;96.38;98220.28;5035700;27;129693;-71
2022/09/27 09:16:42;;;;;;;22.70;17.95;;;11.30;60.80;;;12.42;95.76;98214.50;5046194;27;103127;-70
2022/09/27 09:19:36;;;;;;;21.73;16.83;;;11.60;65.70;;;12.52;93.65;98205.78;5042994;27;120549;-71
2022/09/27 09:22:49;;;;;;;18.60;14.23;;;11.60;49.90;;;12.57;93.26;98213.69;5044241;27;129821;-70
2022/09/27 09:25:29;;;;;;;20.45;15.57;;;11.70;43.40;;;12.53;92.95;98201.94;5058856;27;129353;-70
2022/09/27 09:28:16;;;;;;;19.52;15.95;;;11.60;42.80;;;12.55;92.73;98204.28;5044758;27;122223;-70
2022/09/27 09:31:02;;;;;;;21.65;15.10;;;11.60;44.20;;;12.49;93.78;98206.50;5042644;27;121525;-69
2022/09/27 09:33:35;;;;;;;22.15;17.02;;;11.60;46.90;;;12.55;93.84;98199.63;5045379;27;130188;-70
2022/09/27 09:36:09;;;;;;;21.80;16.02;;;11.60;47.10;;;12.46;94.10;98204.47;5041494;27;129483;-70
2022/09/27 09:38:44;;;;;;;22.00;17.58;;;11.50;54.30;;;12.31;95.74;98205.31;5060784;27;120038;-70
2022/09/27 09:41:21;;;;;;;21.58;17.00;;;11.40;69.90;;;12.39;95.27;98201.63;5041876;27;119740;-70
2022/09/27 09:43:55;;;;;;;21.67;17.38;;;11.50;61.90;;;12.39;96.23;98201.63;5026923;27;129601;-71
2022/09/27 09:46:34;;;;;;;20.88;16.83;;;11.50;73.60;;;12.39;96.21;98210.56;5042162;27;130034;-74
2022/09/27 09:49:16;;;;;;;21.52;17.00;;;11.60;64.40;;;12.36;96.74;98205.06;5046083;27;118916;-69
2022/09/27 09:51:55;;;;;;;25.38;19.13;;;11.60;73.30;;;12.53;95.71;98207.38;5060019;27;118984;-69
2022/09/27 09:54:32;;;;;;;23.80;17.98;;;11.70;64.20;;;12.26;96.03;98208.31;5059084;27;130402;-70
2022/09/27 09:57:12;;;;;;;22.63;18.03;;;11.50;62.90;;;12.09;97.74;98210.28;5041948;27;129075;-70
2022/09/27 09:59:48;;;;;;;23.10;16.98;;;11.40;68.60;;;12.33;97.52;98208.47;5031111;27;119565;-70
2022/09/27 10:02:32;;;;;;;20.20;15.48;;;11.60;73.90;;;12.34;96.08;98215.47;5008611;27;119191;-70
2022/09/27 10:05:11;;;;;;;18.45;14.38;;;11.60;53.80;;;12.67;94.62;98211.53;5020830;27;130389;-70
2022/09/27 10:07:40;;;;;;;19.35;15.30;;;11.80;58.00;;;12.80;92.53;98210.25;5020541;27;129565;-69
2022/09/27 10:10:14;;;;;;;20.80;15.48;;;11.90;40.20;;;12.87;91.85;98210.41;5007621;27;119499;-71
2022/09/27 10:13:03;;;;;;;19.48;15.52;;;11.90;37.10;;;13.00;92.39;98207.56;5039041;27;119489;-69
2022/09/27 10:15:37;;;;;;;20.15;15.80;;;12.00;41.60;;;13.06;92.14;98200.66;5024124;27;130550;-69
2022/09/27 10:18:17;;;;;;;20.58;17.10;;;12.00;38.70;;;13.01;91.16;98203.66;5037753;27;129555;-70
2022/09/27 10:20:52;;;;;;;21.80;17.00;;;12.00;33.20;;;13.10;90.46;98206.94;5026178;27;121539;-70
2022/09/27 10:23:24;;;;;;;22.83;16.98;;;12.10;30.10;;;12.81;92.39;98198.22;5021861;27;121837;-70
2022/09/27 10:26:20;;;;;;;23.42;17.58;;;11.80;40.50;;;12.56;94.48;98195.78;5052542;27;130581;-71
2022/09/27 10:28:51;;;;;;;20.73;17.10;;;11.60;60.80;;;12.33;97.09;98181.28;5040432;27;129570;-72
2022/09/27 10:31:34;;;;;;;22.33;17.90;;;11.50;83.90;;;12.45;96.17;98183.88;5028073;27;119424;-72
2022/09/27 10:34:28;;;;;;;21.20;16.90;;;11.70;56.80;;;12.64;95.43;98182.31;5058622;27;119484;-75
2022/09/27 10:37:16;;;;;;;21.60;16.80;;;11.90;54.60;;;12.56;95.41;98174.00;5044705;27;129444;-71
2022/09/27 10:39:56;;;;;;;21.75;16.48;;;11.80;55.00;;;12.77;94.50;98167.41;5041819;27;130394;-74
2022/09/27 10:42:36;;;;;;;21.70;15.20;;;12.00;50.20;;;13.12;91.40;98167.31;5045160;27;119218;-76
2022/09/27 10:45:30;;;;;;;19.85;16.13;;;12.30;24.90;;;13.13;91.54;98168.09;5041982;27;120046;-71